sensor_id;sensor_type;location;lat;lon;timestamp;temperature;humidity
68719;DHT22;55696;52.138;5.444;2022-08-21T00:01:34;19.20;62.90
68719;DHT22;55696;52.138;5.444;2022-08-21T00:04:06;19.20;62.90
68719;DHT22;55696;52.138;5.444;2022-08-21T00:06:33;19.10;63.10
68719;DHT22;55696;52.138;5.444;2022-08-21T00:09:02;19.20;62.80
68719;DHT22;55696;52.138;5.444;2022-08-21T00:11:33;19.00;62.80
68719;DHT22;55696;52.138;5.444;2022-08-21T00:14:02;19.10;62.80
68719;DHT22;55696;52.138;5.444;2022-08-21T00:16:30;19.00;62.80
68719;DHT22;55696;52.138;5.444;2022-08-21T00:18:57;19.00;62.80
68719;DHT22;55696;52.138;5.444;2022-08-21T00:21:24;18.90;62.90
68719;DHT22;55696;52.138;5.444;2022-08-21T00:23:52;18.80;62.90
68719;DHT22;55696;52.138;5.444;2022-08-21T00:26:19;18.90;63.10
68719;DHT22;55696;52.138;5.444;2022-08-21T00:28:45;18.90;63.10
68719;DHT22;55696;52.138;5.444;2022-08-21T00:31:16;18.90;63.10
68719;DHT22;55696;52.138;5.444;2022-08-21T00:33:42;18.80;63.10
68719;DHT22;55696;52.138;5.444;2022-08-21T00:36:10;18.70;63.00
68719;DHT22;55696;52.138;5.444;2022-08-21T00:38:37;18.80;63.10
68719;DHT22;55696;52.138;5.444;2022-08-21T00:41:07;18.80;63.20
68719;DHT22;55696;52.138;5.444;2022-08-21T00:43:54;18.70;63.30
68719;DHT22;55696;52.138;5.444;2022-08-21T00:46:21;18.80;63.30
68719;DHT22;55696;52.138;5.444;2022-08-21T00:48:54;18.60;63.20
68719;DHT22;55696;52.138;5.444;2022-08-21T00:51:53;18.70;63.30
68719;DHT22;55696;52.138;5.444;2022-08-21T00:54:22;18.70;63.80
68719;DHT22;55696;52.138;5.444;2022-08-21T00:56:57;18.70;63.60
68719;DHT22;55696;52.138;5.444;2022-08-21T00:59:26;19.40;64.40
68719;DHT22;55696;52.138;5.444;2022-08-21T01:01:54;18.60;63.70
68719;DHT22;55696;52.138;5.444;2022-08-21T01:04:22;18.60;63.70
68719;DHT22;55696;52.138;5.444;2022-08-21T01:06:49;18.60;64.00
68719;DHT22;55696;52.138;5.444;2022-08-21T01:09:17;18.60;64.00
68719;DHT22;55696;52.138;5.444;2022-08-21T01:11:45;18.60;64.80
68719;DHT22;55696;52.138;5.444;2022-08-21T01:14:14;18.60;63.90
68719;DHT22;55696;52.138;5.444;2022-08-21T01:16:44;18.60;64.10
68719;DHT22;55696;52.138;5.444;2022-08-21T01:19:11;18.60;64.10
68719;DHT22;55696;52.138;5.444;2022-08-21T01:21:38;18.40;64.00
68719;DHT22;55696;52.138;5.444;2022-08-21T01:24:05;18.60;64.00
68719;DHT22;55696;52.138;5.444;2022-08-21T01:26:34;18.50;64.00
68719;DHT22;55696;52.138;5.444;2022-08-21T01:29:34;18.50;64.30
68719;DHT22;55696;52.138;5.444;2022-08-21T01:32:12;18.50;64.60
68719;DHT22;55696;52.138;5.444;2022-08-21T01:34:41;18.40;64.60
68719;DHT22;55696;52.138;5.444;2022-08-21T01:37:08;18.50;64.30
68719;DHT22;55696;52.138;5.444;2022-08-21T01:39:35;18.50;64.20
68719;DHT22;55696;52.138;5.444;2022-08-21T01:42:03;18.50;64.30
68719;DHT22;55696;52.138;5.444;2022-08-21T01:44:30;18.40;64.30
68719;DHT22;55696;52.138;5.444;2022-08-21T01:46:59;18.40;64.20
68719;DHT22;55696;52.138;5.444;2022-08-21T01:49:27;18.40;64.50
68719;DHT22;55696;52.138;5.444;2022-08-21T01:51:54;18.40;64.30
68719;DHT22;55696;52.138;5.444;2022-08-21T01:54:20;18.40;64.40
68719;DHT22;55696;52.138;5.444;2022-08-21T01:56:50;18.30;64.40
68719;DHT22;55696;52.138;5.444;2022-08-21T01:59:17;18.30;64.60
68719;DHT22;55696;52.138;5.444;2022-08-21T02:01:44;18.30;64.40
68719;DHT22;55696;52.138;5.444;2022-08-21T02:04:11;18.30;64.30
68719;DHT22;55696;52.138;5.444;2022-08-21T02:06:38;18.30;64.30
68719;DHT22;55696;52.138;5.444;2022-08-21T02:09:07;16.70;63.50
68719;DHT22;55696;52.138;5.444;2022-08-21T02:11:35;18.30;64.40
68719;DHT22;55696;52.138;5.444;2022-08-21T02:14:02;18.30;64.40
68719;DHT22;55696;52.138;5.444;2022-08-21T02:16:29;18.30;64.30
68719;DHT22;55696;52.138;5.444;2022-08-21T02:19:02;18.30;64.30
68719;DHT22;55696;52.138;5.444;2022-08-21T02:21:30;18.10;64.80
68719;DHT22;55696;52.138;5.444;2022-08-21T02:23:57;18.20;64.40
68719;DHT22;55696;52.138;5.444;2022-08-21T02:26:24;18.20;64.60
68719;DHT22;55696;52.138;5.444;2022-08-21T02:28:51;18.20;64.50
68719;DHT22;55696;52.138;5.444;2022-08-21T02:31:17;18.20;64.70
68719;DHT22;55696;52.138;5.444;2022-08-21T02:33:44;18.20;64.70
68719;DHT22;55696;52.138;5.444;2022-08-21T02:36:11;18.10;64.70
68719;DHT22;55696;52.138;5.444;2022-08-21T02:38:40;18.10;64.80
68719;DHT22;55696;52.138;5.444;2022-08-21T02:41:12;18.10;64.90
68719;DHT22;55696;52.138;5.444;2022-08-21T02:43:39;18.20;65.00
68719;DHT22;55696;52.138;5.444;2022-08-21T02:46:07;18.00;64.80
68719;DHT22;55696;52.138;5.444;2022-08-21T02:48:35;18.00;64.90
68719;DHT22;55696;52.138;5.444;2022-08-21T02:51:04;18.00;65.10
68719;DHT22;55696;52.138;5.444;2022-08-21T02:53:32;18.00;64.90
68719;DHT22;55696;52.138;5.444;2022-08-21T02:56:00;17.90;65.10
68719;DHT22;55696;52.138;5.444;2022-08-21T02:58:31;18.00;65.30
68719;DHT22;55696;52.138;5.444;2022-08-21T03:00:58;18.00;65.40
68719;DHT22;55696;52.138;5.444;2022-08-21T03:03:27;18.00;65.30
68719;DHT22;55696;52.138;5.444;2022-08-21T03:05:54;18.00;65.30
68719;DHT22;55696;52.138;5.444;2022-08-21T03:08:21;17.90;65.20
68719;DHT22;55696;52.138;5.444;2022-08-21T03:10:53;18.00;65.20
68719;DHT22;55696;52.138;5.444;2022-08-21T03:13:20;17.90;65.40
68719;DHT22;55696;52.138;5.444;2022-08-21T03:15:48;17.90;65.00
68719;DHT22;55696;52.138;5.444;2022-08-21T03:18:15;17.90;65.30
68719;DHT22;55696;52.138;5.444;2022-08-21T03:20:43;17.90;65.00
68719;DHT22;55696;52.138;5.444;2022-08-21T03:23:11;17.90;65.20
68719;DHT22;55696;52.138;5.444;2022-08-21T03:25:46;17.90;65.00
68719;DHT22;55696;52.138;5.444;2022-08-21T03:28:17;17.90;65.20
68719;DHT22;55696;52.138;5.444;2022-08-21T03:30:46;17.80;65.60
68719;DHT22;55696;52.138;5.444;2022-08-21T03:33:13;17.80;65.50
68719;DHT22;55696;52.138;5.444;2022-08-21T03:35:46;17.90;65.40
68719;DHT22;55696;52.138;5.444;2022-08-21T03:38:13;17.90;65.90
68719;DHT22;55696;52.138;5.444;2022-08-21T03:40:42;17.80;65.30
68719;DHT22;55696;52.138;5.444;2022-08-21T03:43:09;17.80;65.50
68719;DHT22;55696;52.138;5.444;2022-08-21T03:45:37;17.80;65.40
68719;DHT22;55696;52.138;5.444;2022-08-21T03:48:05;17.70;65.30
68719;DHT22;55696;52.138;5.444;2022-08-21T03:50:37;17.80;65.40
68719;DHT22;55696;52.138;5.444;2022-08-21T03:53:08;17.90;65.90
68719;DHT22;55696;52.138;5.444;2022-08-21T03:55:45;17.70;65.30
68719;DHT22;55696;52.138;5.444;2022-08-21T03:58:13;17.80;65.50
68719;DHT22;55696;52.138;5.444;2022-08-21T04:00:47;17.80;65.30
68719;DHT22;55696;52.138;5.444;2022-08-21T04:03:14;17.80;65.30
68719;DHT22;55696;52.138;5.444;2022-08-21T04:05:41;17.80;65.50
68719;DHT22;55696;52.138;5.444;2022-08-21T04:08:09;17.80;65.50
68719;DHT22;55696;52.138;5.444;2022-08-21T04:10:37;18.60;66.10
68719;DHT22;55696;52.138;5.444;2022-08-21T04:13:06;17.70;65.90
68719;DHT22;55696;52.138;5.444;2022-08-21T04:15:33;17.70;65.80
68719;DHT22;55696;52.138;5.444;2022-08-21T04:18:00;17.50;65.60
68719;DHT22;55696;52.138;5.444;2022-08-21T04:20:27;17.70;65.80
68719;DHT22;55696;52.138;5.444;2022-08-21T04:22:54;17.70;65.80
68719;DHT22;55696;52.138;5.444;2022-08-21T04:25:23;18.10;66.00
68719;DHT22;55696;52.138;5.444;2022-08-21T04:27:49;17.80;66.10
68719;DHT22;55696;52.138;5.444;2022-08-21T04:30:17;17.70;66.70
68719;DHT22;55696;52.138;5.444;2022-08-21T04:32:45;17.70;65.90
68719;DHT22;55696;52.138;5.444;2022-08-21T04:35:17;17.60;66.10
68719;DHT22;55696;52.138;5.444;2022-08-21T04:37:44;17.60;66.00
68719;DHT22;55696;52.138;5.444;2022-08-21T04:40:13;17.70;65.90
68719;DHT22;55696;52.138;5.444;2022-08-21T04:42:49;17.70;66.10
68719;DHT22;55696;52.138;5.444;2022-08-21T04:45:25;17.80;66.30
68719;DHT22;55696;52.138;5.444;2022-08-21T04:47:54;17.80;66.30
68719;DHT22;55696;52.138;5.444;2022-08-21T04:50:27;17.70;66.10
68719;DHT22;55696;52.138;5.444;2022-08-21T04:53:04;17.70;66.60
68719;DHT22;55696;52.138;5.444;2022-08-21T04:55:31;17.70;66.20
68719;DHT22;55696;52.138;5.444;2022-08-21T04:57:59;18.60;66.30
68719;DHT22;55696;52.138;5.444;2022-08-21T05:00:26;17.70;66.10
68719;DHT22;55696;52.138;5.444;2022-08-21T05:02:54;17.70;65.90
68719;DHT22;55696;52.138;5.444;2022-08-21T05:05:27;17.60;66.20
68719;DHT22;55696;52.138;5.444;2022-08-21T05:07:56;17.50;66.40
68719;DHT22;55696;52.138;5.444;2022-08-21T05:10:24;17.60;66.40
68719;DHT22;55696;52.138;5.444;2022-08-21T05:12:51;17.70;66.10
68719;DHT22;55696;52.138;5.444;2022-08-21T05:15:18;17.70;66.20
68719;DHT22;55696;52.138;5.444;2022-08-21T05:17:44;17.70;66.10
68719;DHT22;55696;52.138;5.444;2022-08-21T05:20:22;17.60;66.10
68719;DHT22;55696;52.138;5.444;2022-08-21T05:22:49;17.80;66.20
68719;DHT22;55696;52.138;5.444;2022-08-21T05:25:16;17.80;66.20
68719;DHT22;55696;52.138;5.444;2022-08-21T05:27:47;17.80;66.30
68719;DHT22;55696;52.138;5.444;2022-08-21T05:30:18;17.90;66.20
68719;DHT22;55696;52.138;5.444;2022-08-21T05:32:45;18.00;66.10
68719;DHT22;55696;52.138;5.444;2022-08-21T05:35:12;18.00;66.20
68719;DHT22;55696;52.138;5.444;2022-08-21T05:37:39;18.10;66.00
68719;DHT22;55696;52.138;5.444;2022-08-21T05:40:06;18.10;66.10
68719;DHT22;55696;52.138;5.444;2022-08-21T05:42:50;18.20;66.00
68719;DHT22;55696;52.138;5.444;2022-08-21T05:45:23;18.30;66.20
68719;DHT22;55696;52.138;5.444;2022-08-21T05:48:22;18.30;66.20
68719;DHT22;55696;52.138;5.444;2022-08-21T05:50:51;18.30;66.70
68719;DHT22;55696;52.138;5.444;2022-08-21T05:53:19;18.50;65.80
68719;DHT22;55696;52.138;5.444;2022-08-21T05:55:47;18.60;65.80
68719;DHT22;55696;52.138;5.444;2022-08-21T05:58:16;18.50;65.50
68719;DHT22;55696;52.138;5.444;2022-08-21T06:00:44;18.70;65.70
68719;DHT22;55696;52.138;5.444;2022-08-21T06:03:24;18.80;65.70
68719;DHT22;55696;52.138;5.444;2022-08-21T06:05:51;18.70;66.00
68719;DHT22;55696;52.138;5.444;2022-08-21T06:08:19;18.90;65.20
68719;DHT22;55696;52.138;5.444;2022-08-21T06:10:48;19.00;65.20
68719;DHT22;55696;52.138;5.444;2022-08-21T06:13:16;19.10;65.20
68719;DHT22;55696;52.138;5.444;2022-08-21T06:15:44;19.10;65.10
68719;DHT22;55696;52.138;5.444;2022-08-21T06:18:11;19.20;65.00
68719;DHT22;55696;52.138;5.444;2022-08-21T06:20:38;19.30;64.80
68719;DHT22;55696;52.138;5.444;2022-08-21T06:23:05;19.30;64.70
68719;DHT22;55696;52.138;5.444;2022-08-21T06:25:32;19.50;64.60
68719;DHT22;55696;52.138;5.444;2022-08-21T06:28:07;19.60;64.60
68719;DHT22;55696;52.138;5.444;2022-08-21T06:30:36;19.70;65.10
68719;DHT22;55696;52.138;5.444;2022-08-21T06:33:03;19.60;64.50
68719;DHT22;55696;52.138;5.444;2022-08-21T06:35:30;19.80;64.40
68719;DHT22;55696;52.138;5.444;2022-08-21T06:37:57;19.90;64.30
68719;DHT22;55696;52.138;5.444;2022-08-21T06:40:25;19.90;64.50
68719;DHT22;55696;52.138;5.444;2022-08-21T06:42:52;19.80;64.30
68719;DHT22;55696;52.138;5.444;2022-08-21T06:45:20;20.00;64.40
68719;DHT22;55696;52.138;5.444;2022-08-21T06:47:47;20.10;64.50
68719;DHT22;55696;52.138;5.444;2022-08-21T06:50:13;20.20;64.50
68719;DHT22;55696;52.138;5.444;2022-08-21T06:52:40;20.20;64.50
68719;DHT22;55696;52.138;5.444;2022-08-21T06:55:09;20.20;64.40
68719;DHT22;55696;52.138;5.444;2022-08-21T06:57:36;20.30;64.50
68719;DHT22;55696;52.138;5.444;2022-08-21T07:00:05;20.20;64.10
68719;DHT22;55696;52.138;5.444;2022-08-21T07:02:32;20.50;64.20
68719;DHT22;55696;52.138;5.444;2022-08-21T07:05:00;20.70;63.90
68719;DHT22;55696;52.138;5.444;2022-08-21T07:07:43;20.80;63.70
68719;DHT22;55696;52.138;5.444;2022-08-21T07:10:10;20.90;63.60
68719;DHT22;55696;52.138;5.444;2022-08-21T07:12:49;20.80;64.30
68719;DHT22;55696;52.138;5.444;2022-08-21T07:15:25;20.80;63.50
68719;DHT22;55696;52.138;5.444;2022-08-21T07:17:52;20.90;63.40
68719;DHT22;55696;52.138;5.444;2022-08-21T07:20:19;21.10;63.40
68719;DHT22;55696;52.138;5.444;2022-08-21T07:22:45;21.10;63.40
68719;DHT22;55696;52.138;5.444;2022-08-21T07:25:12;21.10;63.30
68719;DHT22;55696;52.138;5.444;2022-08-21T07:27:39;21.20;63.30
68719;DHT22;55696;52.138;5.444;2022-08-21T07:30:06;21.30;63.20
68719;DHT22;55696;52.138;5.444;2022-08-21T07:32:33;21.30;63.00
68719;DHT22;55696;52.138;5.444;2022-08-21T07:35:00;21.40;63.00
68719;DHT22;55696;52.138;5.444;2022-08-21T07:37:26;21.40;62.90
68719;DHT22;55696;52.138;5.444;2022-08-21T07:39:53;21.50;62.90
68719;DHT22;55696;52.138;5.444;2022-08-21T07:42:20;21.50;62.80
68719;DHT22;55696;52.138;5.444;2022-08-21T07:44:48;21.60;62.60
68719;DHT22;55696;52.138;5.444;2022-08-21T07:47:18;21.70;62.40
68719;DHT22;55696;52.138;5.444;2022-08-21T07:50:06;21.70;62.30
68719;DHT22;55696;52.138;5.444;2022-08-21T07:52:33;21.80;62.30
68719;DHT22;55696;52.138;5.444;2022-08-21T07:55:00;21.80;62.20
68719;DHT22;55696;52.138;5.444;2022-08-21T07:57:32;22.00;62.10
68719;DHT22;55696;52.138;5.444;2022-08-21T07:59:59;22.10;62.00
68719;DHT22;55696;52.138;5.444;2022-08-21T08:02:28;22.10;61.80
68719;DHT22;55696;52.138;5.444;2022-08-21T08:04:59;22.20;61.90
68719;DHT22;55696;52.138;5.444;2022-08-21T08:07:26;22.20;61.90
68719;DHT22;55696;52.138;5.444;2022-08-21T08:09:53;22.30;61.70
68719;DHT22;55696;52.138;5.444;2022-08-21T08:12:19;22.40;61.60
68719;DHT22;55696;52.138;5.444;2022-08-21T08:14:47;22.40;61.50
68719;DHT22;55696;52.138;5.444;2022-08-21T08:17:13;22.40;61.30
68719;DHT22;55696;52.138;5.444;2022-08-21T08:19:40;22.50;61.30
68719;DHT22;55696;52.138;5.444;2022-08-21T08:22:15;23.00;61.50
68719;DHT22;55696;52.138;5.444;2022-08-21T08:24:42;22.60;61.40
68719;DHT22;55696;52.138;5.444;2022-08-21T08:27:08;22.70;61.00
68719;DHT22;55696;52.138;5.444;2022-08-21T08:29:35;22.70;60.80
68719;DHT22;55696;52.138;5.444;2022-08-21T08:32:03;23.50;61.10
68719;DHT22;55696;52.138;5.444;2022-08-21T08:34:30;22.80;60.60
68719;DHT22;55696;52.138;5.444;2022-08-21T08:36:57;22.90;60.50
68719;DHT22;55696;52.138;5.444;2022-08-21T08:39:27;23.00;60.40
68719;DHT22;55696;52.138;5.444;2022-08-21T08:42:11;23.00;60.30
68719;DHT22;55696;52.138;5.444;2022-08-21T08:45:09;23.00;60.20
68719;DHT22;55696;52.138;5.444;2022-08-21T08:47:45;23.20;60.10
68719;DHT22;55696;52.138;5.444;2022-08-21T08:50:19;23.10;60.00
68719;DHT22;55696;52.138;5.444;2022-08-21T08:53:00;23.30;59.70
68719;DHT22;55696;52.138;5.444;2022-08-21T08:55:39;23.40;59.30
68719;DHT22;55696;52.138;5.444;2022-08-21T08:58:11;23.60;58.90
68719;DHT22;55696;52.138;5.444;2022-08-21T09:00:39;23.80;58.70
68719;DHT22;55696;52.138;5.444;2022-08-21T09:03:05;23.90;58.40
68719;DHT22;55696;52.138;5.444;2022-08-21T09:05:48;24.00;58.20
68719;DHT22;55696;52.138;5.444;2022-08-21T09:11:07;24.50;57.30
68719;DHT22;55696;52.138;5.444;2022-08-21T09:13:55;24.40;56.20
68719;DHT22;55696;52.138;5.444;2022-08-21T09:20:08;24.50;56.20
68719;DHT22;55696;52.138;5.444;2022-08-21T09:22:50;24.60;55.80
68719;DHT22;55696;52.138;5.444;2022-08-21T09:25:34;24.70;55.60
68719;DHT22;55696;52.138;5.444;2022-08-21T09:28:11;24.70;55.20
68719;DHT22;55696;52.138;5.444;2022-08-21T09:30:41;24.80;54.70
68719;DHT22;55696;52.138;5.444;2022-08-21T09:33:12;24.70;54.30
68719;DHT22;55696;52.138;5.444;2022-08-21T09:35:55;25.00;54.50
68719;DHT22;55696;52.138;5.444;2022-08-21T09:38:34;25.00;54.00
68719;DHT22;55696;52.138;5.444;2022-08-21T09:41:05;25.10;53.50
68719;DHT22;55696;52.138;5.444;2022-08-21T09:43:32;25.30;53.40
68719;DHT22;55696;52.138;5.444;2022-08-21T09:48:45;25.70;52.60
68719;DHT22;55696;52.138;5.444;2022-08-21T09:51:16;25.80;52.20
68719;DHT22;55696;52.138;5.444;2022-08-21T09:53:50;25.90;52.10
68719;DHT22;55696;52.138;5.444;2022-08-21T09:56:29;26.10;51.90
68719;DHT22;55696;52.138;5.444;2022-08-21T09:59:29;26.00;51.70
68719;DHT22;55696;52.138;5.444;2022-08-21T10:02:25;26.10;51.20
68719;DHT22;55696;52.138;5.444;2022-08-21T10:04:59;26.10;50.60
68719;DHT22;55696;52.138;5.444;2022-08-21T10:07:28;26.00;50.30
68719;DHT22;55696;52.138;5.444;2022-08-21T10:35:17;24.90;52.20
68719;DHT22;55696;52.138;5.444;2022-08-21T10:37:52;24.90;52.80
68719;DHT22;55696;52.138;5.444;2022-08-21T10:48:45;25.80;50.10
68719;DHT22;55696;52.138;5.444;2022-08-21T10:51:19;25.80;49.10
68719;DHT22;55696;52.138;5.444;2022-08-21T10:54:12;26.40;48.60
68719;DHT22;55696;52.138;5.444;2022-08-21T10:56:51;26.70;47.90
68719;DHT22;55696;52.138;5.444;2022-08-21T10:59:28;26.70;47.10
68719;DHT22;55696;52.138;5.444;2022-08-21T11:02:21;26.70;47.20
68719;DHT22;55696;52.138;5.444;2022-08-21T11:04:56;26.50;46.80
68719;DHT22;55696;52.138;5.444;2022-08-21T11:07:30;26.60;46.60
68719;DHT22;55696;52.138;5.444;2022-08-21T11:10:11;26.80;46.90
68719;DHT22;55696;52.138;5.444;2022-08-21T11:12:47;26.80;46.60
68719;DHT22;55696;52.138;5.444;2022-08-21T11:23:48;27.00;45.70
68719;DHT22;55696;52.138;5.444;2022-08-21T11:26:45;27.30;45.50
68719;DHT22;55696;52.138;5.444;2022-08-21T11:29:26;27.30;44.60
68719;DHT22;55696;52.138;5.444;2022-08-21T11:43:45;28.00;42.90
68719;DHT22;55696;52.138;5.444;2022-08-21T11:46:36;27.80;42.90
68719;DHT22;55696;52.138;5.444;2022-08-21T11:52:25;27.50;43.20
68719;DHT22;55696;52.138;5.444;2022-08-21T11:55:02;27.80;43.50
68719;DHT22;55696;52.138;5.444;2022-08-21T11:57:39;27.40;43.30
68719;DHT22;55696;52.138;5.444;2022-08-21T12:00:15;27.10;43.60
68719;DHT22;55696;52.138;5.444;2022-08-21T12:02:51;27.00;43.70
68719;DHT22;55696;52.138;5.444;2022-08-21T12:05:38;26.80;43.90
68719;DHT22;55696;52.138;5.444;2022-08-21T12:08:09;26.60;44.20
68719;DHT22;55696;52.138;5.444;2022-08-21T12:10:46;26.60;44.70
68719;DHT22;55696;52.138;5.444;2022-08-21T12:13:27;26.50;45.30
68719;DHT22;55696;52.138;5.444;2022-08-21T12:16:12;26.30;47.00
68719;DHT22;55696;52.138;5.444;2022-08-21T12:18:40;26.20;46.50
68719;DHT22;55696;52.138;5.444;2022-08-21T12:21:27;26.20;46.70
68719;DHT22;55696;52.138;5.444;2022-08-21T12:29:31;26.10;47.00
68719;DHT22;55696;52.138;5.444;2022-08-21T12:34:42;26.00;47.30
68719;DHT22;55696;52.138;5.444;2022-08-21T12:37:22;26.00;47.60
68719;DHT22;55696;52.138;5.444;2022-08-21T12:39:53;26.30;47.60
68719;DHT22;55696;52.138;5.444;2022-08-21T12:42:30;26.60;46.70
68719;DHT22;55696;52.138;5.444;2022-08-21T12:45:06;27.00;46.30
68719;DHT22;55696;52.138;5.444;2022-08-21T12:47:47;27.30;45.40
68719;DHT22;55696;52.138;5.444;2022-08-21T12:50:20;27.20;44.60
68719;DHT22;55696;52.138;5.444;2022-08-21T12:52:59;27.10;44.50
68719;DHT22;55696;52.138;5.444;2022-08-21T12:55:29;27.20;44.30
68719;DHT22;55696;52.138;5.444;2022-08-21T12:57:57;27.00;44.00
68719;DHT22;55696;52.138;5.444;2022-08-21T13:00:27;27.30;44.00
68719;DHT22;55696;52.138;5.444;2022-08-21T13:02:55;28.10;44.20
68719;DHT22;55696;52.138;5.444;2022-08-21T13:07:54;28.00;41.80
68719;DHT22;55696;52.138;5.444;2022-08-21T13:10:26;27.80;41.90
68719;DHT22;55696;52.138;5.444;2022-08-21T13:12:56;27.50;42.50
68719;DHT22;55696;52.138;5.444;2022-08-21T13:15:32;27.80;42.60
68719;DHT22;55696;52.138;5.444;2022-08-21T13:18:01;27.70;42.60
68719;DHT22;55696;52.138;5.444;2022-08-21T13:20:40;27.70;42.40
68719;DHT22;55696;52.138;5.444;2022-08-21T13:23:22;28.10;42.50
68719;DHT22;55696;52.138;5.444;2022-08-21T13:25:49;27.50;42.50
68719;DHT22;55696;52.138;5.444;2022-08-21T13:28:16;27.20;43.10
68719;DHT22;55696;52.138;5.444;2022-08-21T13:30:49;27.10;43.60
68719;DHT22;55696;52.138;5.444;2022-08-21T13:33:19;27.20;44.30
68719;DHT22;55696;52.138;5.444;2022-08-21T13:38:29;27.50;43.80
68719;DHT22;55696;52.138;5.444;2022-08-21T13:43:35;28.30;42.40
68719;DHT22;55696;52.138;5.444;2022-08-21T13:46:08;28.40;42.10
68719;DHT22;55696;52.138;5.444;2022-08-21T13:48:36;28.40;42.00
68719;DHT22;55696;52.138;5.444;2022-08-21T13:51:04;28.50;41.90
68719;DHT22;55696;52.138;5.444;2022-08-21T13:53:34;28.50;41.70
68719;DHT22;55696;52.138;5.444;2022-08-21T13:56:03;28.50;41.80
68719;DHT22;55696;52.138;5.444;2022-08-21T13:58:45;28.40;41.80
68719;DHT22;55696;52.138;5.444;2022-08-21T14:01:33;28.30;42.00
68719;DHT22;55696;52.138;5.444;2022-08-21T14:04:12;28.10;42.10
68719;DHT22;55696;52.138;5.444;2022-08-21T14:06:42;28.00;42.20
68719;DHT22;55696;52.138;5.444;2022-08-21T14:09:11;27.90;42.30
68719;DHT22;55696;52.138;5.444;2022-08-21T14:11:38;27.80;42.70
68719;DHT22;55696;52.138;5.444;2022-08-21T14:14:25;27.60;42.70
68719;DHT22;55696;52.138;5.444;2022-08-21T14:17:04;27.50;43.10
68719;DHT22;55696;52.138;5.444;2022-08-21T14:19:51;27.40;43.50
68719;DHT22;55696;52.138;5.444;2022-08-21T14:25:07;27.40;44.70
68719;DHT22;55696;52.138;5.444;2022-08-21T14:27:38;27.40;43.40
68719;DHT22;55696;52.138;5.444;2022-08-21T14:30:18;27.10;43.60
68719;DHT22;55696;52.138;5.444;2022-08-21T14:32:45;27.10;44.30
68719;DHT22;55696;52.138;5.444;2022-08-21T14:35:14;27.00;44.40
68719;DHT22;55696;52.138;5.444;2022-08-21T14:37:44;26.80;44.60
68719;DHT22;55696;52.138;5.444;2022-08-21T14:40:16;26.80;44.90
68719;DHT22;55696;52.138;5.444;2022-08-21T14:42:44;26.90;44.80
68719;DHT22;55696;52.138;5.444;2022-08-21T14:47:42;26.60;44.70
68719;DHT22;55696;52.138;5.444;2022-08-21T14:50:10;26.70;44.90
68719;DHT22;55696;52.138;5.444;2022-08-21T14:52:37;26.40;45.00
68719;DHT22;55696;52.138;5.444;2022-08-21T14:55:05;26.40;45.10
68719;DHT22;55696;52.138;5.444;2022-08-21T14:57:32;26.50;45.50
68719;DHT22;55696;52.138;5.444;2022-08-21T15:00:00;26.40;45.50
68719;DHT22;55696;52.138;5.444;2022-08-21T15:02:27;26.20;45.40
68719;DHT22;55696;52.138;5.444;2022-08-21T15:04:54;26.60;45.80
68719;DHT22;55696;52.138;5.444;2022-08-21T15:07:21;26.20;45.20
68719;DHT22;55696;52.138;5.444;2022-08-21T15:09:47;26.40;45.50
68719;DHT22;55696;52.138;5.444;2022-08-21T15:12:14;26.40;45.50
68719;DHT22;55696;52.138;5.444;2022-08-21T15:14:42;26.50;45.70
68719;DHT22;55696;52.138;5.444;2022-08-21T15:17:10;26.80;45.70
68719;DHT22;55696;52.138;5.444;2022-08-21T15:19:37;26.60;45.40
68719;DHT22;55696;52.138;5.444;2022-08-21T15:22:04;26.80;45.40
68719;DHT22;55696;52.138;5.444;2022-08-21T15:24:41;26.80;45.10
68719;DHT22;55696;52.138;5.444;2022-08-21T15:27:09;26.80;44.90
68719;DHT22;55696;52.138;5.444;2022-08-21T15:29:36;26.80;44.80
68719;DHT22;55696;52.138;5.444;2022-08-21T15:32:22;26.70;44.60
68719;DHT22;55696;52.138;5.444;2022-08-21T15:34:51;26.60;44.60
68719;DHT22;55696;52.138;5.444;2022-08-21T15:37:19;26.80;45.10
68719;DHT22;55696;52.138;5.444;2022-08-21T15:39:46;26.50;45.10
68719;DHT22;55696;52.138;5.444;2022-08-21T15:42:20;26.50;45.00
68719;DHT22;55696;52.138;5.444;2022-08-21T15:44:48;26.40;45.00
68719;DHT22;55696;52.138;5.444;2022-08-21T15:47:19;26.30;44.90
68719;DHT22;55696;52.138;5.444;2022-08-21T15:49:47;26.20;44.90
68719;DHT22;55696;52.138;5.444;2022-08-21T15:52:16;26.30;45.20
68719;DHT22;55696;52.138;5.444;2022-08-21T15:54:43;26.20;45.10
68719;DHT22;55696;52.138;5.444;2022-08-21T15:57:15;26.20;45.30
68719;DHT22;55696;52.138;5.444;2022-08-21T15:59:48;26.10;45.20
68719;DHT22;55696;52.138;5.444;2022-08-21T16:02:22;26.10;45.00
68719;DHT22;55696;52.138;5.444;2022-08-21T16:04:50;26.10;44.30
68719;DHT22;55696;52.138;5.444;2022-08-21T16:07:17;26.10;44.40
68719;DHT22;55696;52.138;5.444;2022-08-21T16:09:43;26.30;44.90
68719;DHT22;55696;52.138;5.444;2022-08-21T16:12:15;26.30;44.90
68719;DHT22;55696;52.138;5.444;2022-08-21T16:14:43;26.40;45.10
68719;DHT22;55696;52.138;5.444;2022-08-21T16:17:10;26.60;44.90
68719;DHT22;55696;52.138;5.444;2022-08-21T16:19:37;26.60;44.70
68719;DHT22;55696;52.138;5.444;2022-08-21T16:22:04;26.60;44.60
68719;DHT22;55696;52.138;5.444;2022-08-21T16:24:31;26.50;44.80
68719;DHT22;55696;52.138;5.444;2022-08-21T16:26:59;26.50;45.00
68719;DHT22;55696;52.138;5.444;2022-08-21T16:29:33;26.50;45.10
68719;DHT22;55696;52.138;5.444;2022-08-21T16:32:01;26.30;45.20
68719;DHT22;55696;52.138;5.444;2022-08-21T16:34:28;26.40;45.60
68719;DHT22;55696;52.138;5.444;2022-08-21T16:36:55;26.20;45.70
68719;DHT22;55696;52.138;5.444;2022-08-21T16:39:21;26.30;45.80
68719;DHT22;55696;52.138;5.444;2022-08-21T16:41:49;26.70;46.20
68719;DHT22;55696;52.138;5.444;2022-08-21T16:44:18;26.30;46.00
68719;DHT22;55696;52.138;5.444;2022-08-21T16:46:46;26.00;45.90
68719;DHT22;55696;52.138;5.444;2022-08-21T16:49:13;26.20;46.10
68719;DHT22;55696;52.138;5.444;2022-08-21T16:51:40;26.10;46.10
68719;DHT22;55696;52.138;5.444;2022-08-21T16:54:07;26.10;46.20
68719;DHT22;55696;52.138;5.444;2022-08-21T16:56:34;26.10;46.20
68719;DHT22;55696;52.138;5.444;2022-08-21T16:59:06;26.10;46.20
68719;DHT22;55696;52.138;5.444;2022-08-21T17:01:33;25.90;46.10
68719;DHT22;55696;52.138;5.444;2022-08-21T17:04:01;25.70;46.10
68719;DHT22;55696;52.138;5.444;2022-08-21T17:06:28;26.00;46.70
68719;DHT22;55696;52.138;5.444;2022-08-21T17:08:57;25.70;46.70
68719;DHT22;55696;52.138;5.444;2022-08-21T17:11:31;25.80;47.00
68719;DHT22;55696;52.138;5.444;2022-08-21T17:14:10;25.70;47.30
68719;DHT22;55696;52.138;5.444;2022-08-21T17:16:38;26.30;47.80
68719;DHT22;55696;52.138;5.444;2022-08-21T17:19:06;25.50;47.20
68719;DHT22;55696;52.138;5.444;2022-08-21T17:21:34;25.70;47.20